West Mifflin, PA (15122)

10:23 PM EST on February 08, 2016 (GMT -0500)
White Oak, PA 15131-1531 | | Change Station
CLOSE
Current Station
Personal Weather Station
Location: White Oak, PA
Elevation: 1076 ft
Nearby Weather Stations
Active Advisory: Winter Weather Advisory

Elev 1076 ft 40.35 °N, 79.82 °W | Updated 10 seconds ago

Overcast
Overcast
34.2 °F
Feels Like 34 °F
N
0.0
Wind Variable Wind from WSW
Gusts 2.5 mph

Today
High -- | Low -- °F
--% Chance of Precip.
Yesterday
High -- | Low -- °F
Precip. -- in
Pressure 29.63 in
Visibility 10.0 miles
Clouds Mostly Cloudy 1800 ft
Overcast 2700 ft
Windchill 34 °F
Dew Point 32 °F
Humidity 91%
Rainfall 0.02 in
Snow Depth Not available.
7:22 AM 5:46 PM
New Moon, 0% visible
METAR KAGC 090253Z 22006KT 10SM BKN018 OVC027 02/M01 A2959 RMK AO2 SLP032 T00221011 50001
Pressure 29.63 in
Visibility 10.0 miles
Clouds Mostly Cloudy 1800 ft
Overcast 2700 ft
Windchill 34 °F
Dew Point 32 °F
Humidity 91%
Rainfall 0.02 in
Snow Depth Not available.
7:22 AM 5:46 PM
New Moon, 0% visible
METAR KAGC 090253Z 22006KT 10SM BKN018 OVC027 02/M01 A2959 RMK AO2 SLP032 T00221011 50001

10-Day Weather Forecast

Almanac

Astronomy

Feb. 08, 2016 Rise Set
Actual Time
Civil Twilight
Nautical Twilight
Astronomical Twilight
Moon
Length of Visible Light
Length of Day
Tomorrow will be .
, % of the Moon is Illuminated

Today's Extremes

State Highs State Lows

Community

WunderPhotos

Upload Photos

1,891,527 photos uploaded!

WunderBlog® & News

Nearby

Air Quality

  Air Quality AQ Index Pollutant
Not available.

Snow Depth

Station Depth Elevation

Earthquake Activity

City Distance Mag. Time & Date
Minimum magnitude displayed is 2.5.

Coastal Water Temperatures

Place Temperature

Stations

Nearby Weather Stations

Station Location Temp. Windchill Dew Point Humidity Wind Precip. Elev Updated Type
                   

Watches & Warnings

Winter Weather Advisory
Issued: 7:12 PM EST Feb. 8, 2016 – National Weather Service

... Winter Weather Advisory remains in effect until 7 am EST
Wednesday...

* snow accumulation... 3 to 5 inches.

* Snow beginning... this evening.

* Period of most intense snow... Tuesday.

* Snow ending... snow showers will gradually taper down through
Tuesday night.

* Impacts... hazardous travel conditions are expected due to snow.

Precautionary/preparedness actions...

A Winter Weather Advisory for snow means that periods of snow
will cause primarily travel difficulties. Be prepared for snow
covered roads and limited visibilities... and use caution while
driving.